createdAt,value
2022-10-05T00:00:23.934Z,100.00
2022-10-05T00:02:25.728Z,100.00
2022-10-05T00:04:27.307Z,100.00
2022-10-05T00:06:30.310Z,100.00
2022-10-05T00:08:33.942Z,100.00
2022-10-05T00:10:35.563Z,100.00
2022-10-05T00:12:36.992Z,100.00
2022-10-05T00:14:39.245Z,100.00
2022-10-05T00:16:40.769Z,100.00
2022-10-05T00:18:43.240Z,100.00
2022-10-05T00:20:46.343Z,100.00
2022-10-05T00:22:50.814Z,100.00
2022-10-05T00:24:58.083Z,100.00
2022-10-05T00:27:00.633Z,100.00
2022-10-05T00:29:08.680Z,100.00
2022-10-05T00:31:16.579Z,100.00
2022-10-05T00:33:18.085Z,100.00
2022-10-05T00:35:19.756Z,100.00
2022-10-05T00:37:21.273Z,100.00
2022-10-05T00:39:23.942Z,100.00
2022-10-05T00:41:33.590Z,100.00
2022-10-05T00:43:49.901Z,100.00
2022-10-05T00:45:56.383Z,100.00
2022-10-05T00:48:12.462Z,100.00
2022-10-05T00:50:31.643Z,100.00
2022-10-05T00:52:41.675Z,100.00
2022-10-05T00:54:52.175Z,100.00
2022-10-05T00:57:10.720Z,100.00
2022-10-05T00:59:21.941Z,100.00
2022-10-05T01:01:29.573Z,100.00
2022-10-05T01:03:39.147Z,100.00
2022-10-05T01:05:56.571Z,100.00
2022-10-05T01:08:10.745Z,100.00
2022-10-05T01:10:19.092Z,100.00
2022-10-05T01:12:27.424Z,100.00
2022-10-05T01:14:34.815Z,100.00
2022-10-05T01:16:47.279Z,100.00
2022-10-05T01:18:53.668Z,100.00
2022-10-05T01:21:03.303Z,100.00
2022-10-05T01:23:36.828Z,100.00
2022-10-05T01:25:55.225Z,100.00
2022-10-05T01:28:06.525Z,100.00
2022-10-05T01:30:12.231Z,100.00
2022-10-05T01:32:20.376Z,100.00
2022-10-05T01:34:30.828Z,100.00
2022-10-05T01:36:40.444Z,100.00
2022-10-05T01:38:48.116Z,100.00
2022-10-05T01:40:58.150Z,100.00
2022-10-05T01:43:10.308Z,100.00
2022-10-05T01:45:18.790Z,100.00
2022-10-05T01:47:28.616Z,100.00
2022-10-05T01:49:36.783Z,100.00
2022-10-05T01:51:45.992Z,100.00
2022-10-05T01:53:59.895Z,100.00
2022-10-05T01:56:09.791Z,100.00
2022-10-05T01:58:20.697Z,100.00
2022-10-05T02:00:22.175Z,100.00
2022-10-05T02:02:24.180Z,100.00
2022-10-05T02:05:00.328Z,100.00
2022-10-05T02:06:54.090Z,100.00
2022-10-05T02:09:01.567Z,100.00
2022-10-05T02:11:06.642Z,100.00
2022-10-05T02:13:13.419Z,100.00
2022-10-05T02:15:22.982Z,100.00
2022-10-05T02:17:39.173Z,100.00
2022-10-05T02:19:44.639Z,100.00
2022-10-05T02:21:50.438Z,100.00
2022-10-05T02:23:55.739Z,100.00
2022-10-05T02:25:58.244Z,100.00
2022-10-05T02:28:04.179Z,100.00
2022-10-05T02:30:11.639Z,100.00
2022-10-05T02:32:23.588Z,100.00
2022-10-05T02:34:27.388Z,100.00
2022-10-05T02:36:35.108Z,100.00
2022-10-05T02:38:43.982Z,100.00
2022-10-05T02:40:55.767Z,100.00
2022-10-05T02:43:04.344Z,100.00
2022-10-05T02:45:16.790Z,100.00
2022-10-05T02:47:27.474Z,100.00
2022-10-05T02:49:39.364Z,100.00
2022-10-05T02:51:46.816Z,100.00
2022-10-05T02:54:00.132Z,100.00
2022-10-05T02:56:15.348Z,100.00
2022-10-05T02:58:22.710Z,100.00
2022-10-05T03:00:25.826Z,100.00
2022-10-05T03:02:35.559Z,100.00
2022-10-05T03:04:42.485Z,100.00
2022-10-05T03:06:50.302Z,100.00
2022-10-05T03:08:57.256Z,100.00
2022-10-05T03:11:07.173Z,100.00
2022-10-05T03:13:15.891Z,100.00
2022-10-05T03:15:31.186Z,100.00
2022-10-05T03:17:44.804Z,100.00
2022-10-05T03:20:07.610Z,100.00
2022-10-05T03:22:17.864Z,100.00
2022-10-05T03:24:36.086Z,100.00
2022-10-05T03:26:45.130Z,100.00
2022-10-05T03:29:11.231Z,100.00
2022-10-05T03:31:21.981Z,100.00
2022-10-05T03:33:36.943Z,100.00
2022-10-05T03:35:50.308Z,100.00
2022-10-05T03:37:59.610Z,100.00
2022-10-05T03:40:09.783Z,100.00
2022-10-05T03:42:21.019Z,100.00
2022-10-05T03:44:36.506Z,100.00
2022-10-05T03:46:51.312Z,100.00
2022-10-05T03:49:02.575Z,100.00
2022-10-05T03:51:07.907Z,100.00
2022-10-05T03:53:16.302Z,100.00
2022-10-05T03:55:24.286Z,100.00
2022-10-05T03:57:28.573Z,100.00
2022-10-05T03:59:34.160Z,100.00
2022-10-05T04:01:39.465Z,100.00
2022-10-05T04:03:45.953Z,100.00
2022-10-05T04:05:53.649Z,100.00
2022-10-05T04:08:01.437Z,100.00
2022-10-05T04:10:05.736Z,100.00
2022-10-05T04:12:16.417Z,100.00
2022-10-05T04:14:22.176Z,100.00
2022-10-05T04:16:28.235Z,100.00
2022-10-05T04:18:34.493Z,100.00
2022-10-05T04:20:41.432Z,100.00
2022-10-05T04:22:53.272Z,100.00
2022-10-05T04:25:01.241Z,100.00
2022-10-05T04:27:10.654Z,100.00
2022-10-05T04:29:19.324Z,100.00
2022-10-05T04:31:37.008Z,100.00
2022-10-05T04:33:38.472Z,100.00
2022-10-05T04:35:56.921Z,100.00
2022-10-05T04:38:15.759Z,100.00
2022-10-05T04:40:31.191Z,100.00
2022-10-05T04:42:37.881Z,100.00
2022-10-05T04:45:03.122Z,100.00
2022-10-05T04:47:18.398Z,100.00
2022-10-05T04:49:41.468Z,100.00
2022-10-05T04:51:53.359Z,100.00
2022-10-05T04:54:01.593Z,100.00
2022-10-05T04:56:11.271Z,100.00
2022-10-05T04:58:23.877Z,100.00
2022-10-05T05:00:28.912Z,100.00
2022-10-05T05:02:43.378Z,100.00
2022-10-05T05:05:15.128Z,100.00
2022-10-05T05:07:32.006Z,100.00
2022-10-05T05:09:55.959Z,100.00
2022-10-05T05:12:12.303Z,100.00
2022-10-05T05:14:36.682Z,100.00
2022-10-05T05:16:40.387Z,100.00
2022-10-05T05:18:53.958Z,100.00
2022-10-05T05:21:05.373Z,100.00
2022-10-05T05:23:18.664Z,100.00
2022-10-05T05:25:36.441Z,100.00
2022-10-05T05:27:42.942Z,100.00
2022-10-05T05:29:53.394Z,100.00
2022-10-05T05:32:00.970Z,100.00
2022-10-05T05:34:17.600Z,100.00
2022-10-05T05:36:31.157Z,100.00
2022-10-05T05:38:38.619Z,100.00
2022-10-05T05:40:48.609Z,100.00
2022-10-05T05:42:57.613Z,100.00
2022-10-05T05:45:07.404Z,100.00
2022-10-05T05:47:17.198Z,100.00
2022-10-05T05:49:22.896Z,100.00
2022-10-05T05:51:28.871Z,100.00
2022-10-05T05:53:37.304Z,100.00
2022-10-05T05:55:42.367Z,100.00
2022-10-05T05:57:50.961Z,100.00
2022-10-05T06:00:01.215Z,100.00
2022-10-05T06:02:06.856Z,100.00
2022-10-05T06:04:12.658Z,100.00
2022-10-05T06:06:16.779Z,100.00
2022-10-05T06:08:27.873Z,100.00
2022-10-05T06:10:38.190Z,100.00
2022-10-05T06:12:46.342Z,100.00
2022-10-05T06:14:53.070Z,100.00
2022-10-05T06:17:00.480Z,100.00
2022-10-05T06:19:05.904Z,100.00
2022-10-05T06:21:18.511Z,100.00
2022-10-05T06:23:27.047Z,100.00
2022-10-05T06:25:40.823Z,100.00
2022-10-05T06:28:01.598Z,100.00
2022-10-05T06:30:07.593Z,100.00
2022-10-05T06:32:17.714Z,100.00
2022-10-05T06:34:32.892Z,100.00
2022-10-05T06:36:42.799Z,100.00
2022-10-05T06:39:01.792Z,100.00
2022-10-05T06:41:13.939Z,100.00
2022-10-05T06:43:30.563Z,100.00
2022-10-05T06:45:44.725Z,100.00
2022-10-05T06:47:49.837Z,100.00
2022-10-05T06:49:56.813Z,100.00
2022-10-05T06:52:08.184Z,100.00
2022-10-05T06:54:26.176Z,100.00
2022-10-05T06:56:33.316Z,100.00
2022-10-05T06:58:46.510Z,100.00
2022-10-05T07:00:54.033Z,100.00
2022-10-05T07:03:03.280Z,100.00
2022-10-05T07:05:30.795Z,100.00
2022-10-05T07:07:41.466Z,100.00
2022-10-05T07:09:53.220Z,100.00
2022-10-05T07:12:06.767Z,100.00
2022-10-05T07:14:22.424Z,100.00
2022-10-05T07:16:36.395Z,100.00
2022-10-05T07:18:50.189Z,100.00
2022-10-05T07:21:00.027Z,100.00
2022-10-05T07:23:19.317Z,100.00
2022-10-05T07:25:26.469Z,100.00
2022-10-05T07:27:32.159Z,99.95
2022-10-05T07:29:39.315Z,99.02
2022-10-05T07:31:47.627Z,99.15
2022-10-05T07:33:58.713Z,99.28
2022-10-05T07:36:08.421Z,99.02
2022-10-05T07:38:19.611Z,98.63
2022-10-05T07:40:25.921Z,100.00
2022-10-05T07:42:46.042Z,100.00
2022-10-05T07:44:58.129Z,100.00
2022-10-05T07:47:07.086Z,100.00
2022-10-05T07:49:18.155Z,96.11
2022-10-05T07:51:29.112Z,92.17
2022-10-05T07:53:36.154Z,91.70
2022-10-05T07:55:44.055Z,91.25
2022-10-05T07:57:53.761Z,92.26
2022-10-05T08:00:03.591Z,91.37
2022-10-05T08:02:17.889Z,91.65
2022-10-05T08:04:24.246Z,91.37
2022-10-05T08:06:46.614Z,92.55
2022-10-05T08:08:52.538Z,90.86
2022-10-05T08:11:01.851Z,91.08
2022-10-05T08:13:10.481Z,91.73
2022-10-05T08:15:15.604Z,91.11
2022-10-05T08:17:25.656Z,91.23
2022-10-05T08:19:35.270Z,91.11
2022-10-05T08:21:44.267Z,90.17
2022-10-05T08:23:51.576Z,89.25
2022-10-05T08:26:11.489Z,88.77
2022-10-05T08:28:20.105Z,88.77
2022-10-05T08:30:23.690Z,90.32
2022-10-05T08:32:28.803Z,87.35
2022-10-05T08:34:40.050Z,87.96
2022-10-05T08:36:54.018Z,89.17
2022-10-05T08:38:59.453Z,86.10
2022-10-05T08:41:38.543Z,87.34
2022-10-05T08:44:00.878Z,85.26
2022-10-05T08:46:31.954Z,82.92
2022-10-05T08:49:01.248Z,83.34
2022-10-05T08:51:23.339Z,82.11
2022-10-05T08:53:46.758Z,82.95
2022-10-05T08:56:04.280Z,81.65
2022-10-05T08:58:39.231Z,82.85
2022-10-05T09:00:53.699Z,83.12
2022-10-05T09:03:25.090Z,82.34
2022-10-05T09:05:58.864Z,81.32
2022-10-05T09:08:39.378Z,81.68
2022-10-05T09:11:01.020Z,79.48
2022-10-05T09:13:25.684Z,80.50
2022-10-05T09:15:47.014Z,80.52
2022-10-05T09:18:19.174Z,81.17
2022-10-05T09:20:30.221Z,81.02
2022-10-05T09:22:36.771Z,80.63
2022-10-05T09:24:53.962Z,80.26
2022-10-05T09:27:03.224Z,79.04
2022-10-05T09:29:22.980Z,78.60
2022-10-05T09:31:47.049Z,78.52
2022-10-05T09:34:24.479Z,78.56
2022-10-05T09:36:55.342Z,79.66
2022-10-05T09:39:49.616Z,79.63
2022-10-05T09:42:20.819Z,81.05
2022-10-05T09:44:57.703Z,81.22
2022-10-05T09:47:35.357Z,81.75
2022-10-05T09:50:06.950Z,81.32
2022-10-05T09:52:25.615Z,80.96
2022-10-05T09:54:51.719Z,80.73
2022-10-05T09:57:10.455Z,80.78
2022-10-05T09:59:39.786Z,80.98
2022-10-05T10:02:15.132Z,80.88
2022-10-05T10:04:33.568Z,81.25
2022-10-05T10:07:25.393Z,80.39
2022-10-05T10:09:37.881Z,80.31
2022-10-05T10:11:54.472Z,78.99
2022-10-05T10:14:34.814Z,78.24
2022-10-05T10:16:46.100Z,78.92
2022-10-05T10:19:21.922Z,79.13
2022-10-05T10:21:40.800Z,79.63
2022-10-05T10:24:00.409Z,79.49
2022-10-05T10:26:46.589Z,79.24
2022-10-05T10:29:04.082Z,79.56
2022-10-05T10:31:37.570Z,80.04
2022-10-05T10:33:56.605Z,80.84
2022-10-05T10:36:07.100Z,81.09
2022-10-05T10:38:35.053Z,81.85
2022-10-05T10:40:55.548Z,81.64
2022-10-05T10:43:21.594Z,82.29
2022-10-05T10:45:45.109Z,82.70
2022-10-05T10:47:51.181Z,82.19
2022-10-05T10:50:22.718Z,81.87
2022-10-05T10:52:41.882Z,81.87
2022-10-05T10:55:16.929Z,82.01
2022-10-05T10:57:28.247Z,81.98
2022-10-05T11:00:21.410Z,82.80
2022-10-05T11:02:34.973Z,83.05
2022-10-05T11:05:23.095Z,82.50
2022-10-05T11:07:44.364Z,81.51
2022-10-05T11:10:03.820Z,81.36
2022-10-05T11:12:54.353Z,81.12
2022-10-05T11:15:31.305Z,81.10
2022-10-05T11:18:01.204Z,81.18
2022-10-05T11:20:41.979Z,81.94
2022-10-05T11:22:57.325Z,81.56
2022-10-05T11:25:19.367Z,81.52
2022-10-05T11:27:45.222Z,79.18
2022-10-05T11:30:13.685Z,78.09
2022-10-05T11:32:53.263Z,77.08
2022-10-05T11:35:36.324Z,76.28
2022-10-05T11:38:04.016Z,75.84
2022-10-05T11:40:33.284Z,76.23
2022-10-05T11:43:03.656Z,74.00
2022-10-05T11:45:23.765Z,74.25
2022-10-05T11:47:31.526Z,74.49
2022-10-05T11:49:40.004Z,73.99
2022-10-05T11:51:54.627Z,74.43
2022-10-05T11:54:06.532Z,75.15
2022-10-05T11:56:20.184Z,75.56
2022-10-05T11:58:28.218Z,75.77
2022-10-05T12:00:36.067Z,76.71
2022-10-05T12:02:59.111Z,77.05
2022-10-05T12:05:07.661Z,77.40
2022-10-05T12:07:17.837Z,77.31
2022-10-05T12:09:33.703Z,76.55
2022-10-05T12:11:53.236Z,76.50
2022-10-05T12:14:04.634Z,75.49
2022-10-05T12:16:13.005Z,75.60
2022-10-05T12:18:23.533Z,75.61
2022-10-05T12:20:31.367Z,74.93
2022-10-05T12:22:38.304Z,74.14
2022-10-05T12:24:57.834Z,74.32
2022-10-05T12:27:04.847Z,72.76
2022-10-05T12:29:13.634Z,71.15
2022-10-05T12:31:25.676Z,70.42
2022-10-05T12:33:34.676Z,69.99
2022-10-05T12:35:48.512Z,70.76
2022-10-05T12:37:53.997Z,70.07
2022-10-05T12:40:02.510Z,69.88
2022-10-05T12:42:15.741Z,69.71
2022-10-05T12:44:36.976Z,69.45
2022-10-05T12:46:47.138Z,68.45
2022-10-05T12:49:21.946Z,69.03
2022-10-05T12:51:34.586Z,69.74
2022-10-05T12:53:52.894Z,69.26
2022-10-05T12:56:03.279Z,68.03
2022-10-05T12:58:18.385Z,67.38
2022-10-05T13:00:23.220Z,68.86
2022-10-05T13:02:34.761Z,67.41
2022-10-05T13:04:43.628Z,65.15
2022-10-05T13:07:02.948Z,64.69
2022-10-05T13:09:10.498Z,63.72
2022-10-05T13:11:15.322Z,64.69
2022-10-05T13:13:43.209Z,64.67
2022-10-05T13:15:50.930Z,66.12
2022-10-05T13:17:59.866Z,65.78
2022-10-05T13:20:12.086Z,65.68
2022-10-05T13:22:31.627Z,65.57
2022-10-05T13:24:41.853Z,66.31
2022-10-05T13:26:49.567Z,66.62
2022-10-05T13:28:59.790Z,66.02
2022-10-05T13:31:11.166Z,66.53
2022-10-05T13:33:20.042Z,66.11
2022-10-05T13:35:43.830Z,65.90
2022-10-05T13:37:55.341Z,65.42
2022-10-05T13:40:10.985Z,65.38
2022-10-05T13:42:17.614Z,66.43
2022-10-05T13:44:27.464Z,66.66
2022-10-05T13:46:37.519Z,65.93
2022-10-05T13:48:54.915Z,65.54
2022-10-05T13:51:07.180Z,65.59
2022-10-05T13:53:19.955Z,66.28
2022-10-05T13:55:36.833Z,66.48
2022-10-05T13:57:48.074Z,66.75
2022-10-05T13:59:53.724Z,67.73
2022-10-05T14:01:58.532Z,66.35
2022-10-05T14:04:13.760Z,65.74
2022-10-05T14:06:26.298Z,66.17
2022-10-05T14:08:31.543Z,66.21
2022-10-05T14:10:37.122Z,66.70
2022-10-05T14:12:41.282Z,66.48
2022-10-05T14:14:47.308Z,66.39
2022-10-05T14:16:51.949Z,66.95
2022-10-05T14:18:57.893Z,67.39
2022-10-05T14:21:02.291Z,68.01
2022-10-05T14:23:13.287Z,69.06
2022-10-05T14:25:15.979Z,69.24
2022-10-05T14:27:21.105Z,68.95
2022-10-05T14:29:24.773Z,69.84
2022-10-05T14:31:33.053Z,70.40
2022-10-05T14:33:35.468Z,69.91
2022-10-05T14:35:47.064Z,70.66
2022-10-05T14:37:54.591Z,70.15
2022-10-05T14:39:58.803Z,70.57
2022-10-05T14:42:13.578Z,70.00
2022-10-05T14:44:27.786Z,70.46
2022-10-05T14:46:31.239Z,71.06
2022-10-05T14:48:41.169Z,70.44
2022-10-05T14:50:52.547Z,71.02
2022-10-05T14:53:13.010Z,70.35
2022-10-05T14:55:35.005Z,69.36
2022-10-05T14:57:45.979Z,69.52
2022-10-05T15:00:01.659Z,69.73
2022-10-05T15:02:18.936Z,69.31
2022-10-05T15:04:33.934Z,68.65
2022-10-05T15:06:38.584Z,69.11
2022-10-05T15:08:52.048Z,68.79
2022-10-05T15:11:00.234Z,68.51
2022-10-05T15:13:11.920Z,68.28
2022-10-05T15:15:26.751Z,68.04
2022-10-05T15:17:37.741Z,68.46
2022-10-05T15:19:51.650Z,69.29
2022-10-05T15:22:00.317Z,69.73
2022-10-05T15:24:06.124Z,69.95
2022-10-05T15:26:28.405Z,71.09
2022-10-05T15:28:37.488Z,71.08
2022-10-05T15:30:45.914Z,71.44
2022-10-05T15:33:03.414Z,71.86
2022-10-05T15:35:34.640Z,72.66
2022-10-05T15:37:42.090Z,72.32
2022-10-05T15:39:49.312Z,72.40
2022-10-05T15:41:59.298Z,73.10
2022-10-05T15:44:09.193Z,73.32
2022-10-05T15:46:16.133Z,73.89
2022-10-05T15:48:22.630Z,74.35
2022-10-05T15:50:27.342Z,74.71
2022-10-05T15:52:36.435Z,75.08
2022-10-05T15:55:00.579Z,75.55
2022-10-05T15:57:11.127Z,75.41
2022-10-05T15:59:23.191Z,75.68
2022-10-05T16:01:40.652Z,76.00
2022-10-05T16:03:49.145Z,76.18
2022-10-05T16:05:56.561Z,76.80
2022-10-05T16:07:58.144Z,76.92
2022-10-05T16:10:06.780Z,76.94
2022-10-05T16:12:29.761Z,77.55
2022-10-05T16:14:55.698Z,78.34
2022-10-05T16:17:11.513Z,78.51
2022-10-05T16:19:21.246Z,78.84
2022-10-05T16:21:30.872Z,79.23
2022-10-05T16:23:42.429Z,79.45
2022-10-05T16:25:57.735Z,79.63
2022-10-05T16:28:18.308Z,80.39
2022-10-05T16:30:22.114Z,80.92
2022-10-05T16:32:29.050Z,81.57
2022-10-05T16:34:41.635Z,81.88
2022-10-05T16:36:55.232Z,82.66
2022-10-05T16:39:03.005Z,83.71
2022-10-05T16:41:14.572Z,84.14
2022-10-05T16:43:29.838Z,85.33
2022-10-05T16:45:45.986Z,85.56
2022-10-05T16:47:57.644Z,86.12
2022-10-05T16:50:08.457Z,87.20
2022-10-05T16:52:16.119Z,87.81
2022-10-05T16:54:18.639Z,88.51
2022-10-05T16:56:25.943Z,88.95
2022-10-05T16:58:40.513Z,89.13
2022-10-05T17:00:57.874Z,89.47
2022-10-05T17:03:15.933Z,90.94
2022-10-05T17:05:31.144Z,91.90
2022-10-05T17:07:47.645Z,93.28
2022-10-05T17:10:05.401Z,92.72
2022-10-05T17:12:20.544Z,94.96
2022-10-05T17:14:36.609Z,93.64
2022-10-05T17:16:51.367Z,93.85
2022-10-05T17:19:06.097Z,93.64
2022-10-05T17:21:15.364Z,93.69
2022-10-05T17:23:27.257Z,94.26
2022-10-05T17:25:42.788Z,95.38
2022-10-05T17:27:55.344Z,96.60
2022-10-05T17:30:38.927Z,98.28
2022-10-05T17:32:56.250Z,98.34
2022-10-05T17:35:17.992Z,98.75
2022-10-05T17:37:34.648Z,98.51
2022-10-05T17:39:49.103Z,99.04
2022-10-05T17:41:50.714Z,100.00
2022-10-05T17:44:21.457Z,100.00
2022-10-05T17:46:37.725Z,99.29
2022-10-05T17:49:17.346Z,99.78
2022-10-05T17:51:58.743Z,100.00
2022-10-05T17:54:18.971Z,100.00
2022-10-05T17:56:21.249Z,100.00
2022-10-05T17:58:59.240Z,100.00
2022-10-05T18:01:13.746Z,100.00
2022-10-05T18:03:34.998Z,100.00
2022-10-05T18:05:37.899Z,100.00
2022-10-05T18:07:40.169Z,100.00
2022-10-05T18:09:59.733Z,100.00
2022-10-05T18:12:36.611Z,100.00
2022-10-05T18:15:00.268Z,100.00
2022-10-05T18:17:04.046Z,100.00
2022-10-05T18:19:14.693Z,100.00
2022-10-05T18:21:37.743Z,100.00
2022-10-05T18:23:42.918Z,100.00
2022-10-05T18:25:48.399Z,100.00
2022-10-05T18:28:16.405Z,100.00
2022-10-05T18:30:21.848Z,100.00
2022-10-05T18:32:34.486Z,100.00
2022-10-05T18:34:42.661Z,100.00
2022-10-05T18:36:57.482Z,100.00
2022-10-05T18:39:07.362Z,100.00
2022-10-05T18:41:17.788Z,100.00
2022-10-05T18:43:30.536Z,100.00
2022-10-05T18:45:44.646Z,100.00
2022-10-05T18:47:55.499Z,100.00
2022-10-05T18:50:10.573Z,100.00
2022-10-05T18:52:23.159Z,100.00
2022-10-05T18:54:39.368Z,100.00
2022-10-05T18:56:44.900Z,100.00
2022-10-05T18:58:57.244Z,100.00
2022-10-05T19:01:37.369Z,100.00
2022-10-05T19:03:50.039Z,100.00
2022-10-05T19:06:02.212Z,100.00
2022-10-05T19:08:09.952Z,100.00
2022-10-05T19:10:17.129Z,100.00
2022-10-05T19:12:27.698Z,100.00
2022-10-05T19:14:37.639Z,100.00
2022-10-05T19:16:54.176Z,100.00
2022-10-05T19:19:27.201Z,100.00
2022-10-05T19:21:40.738Z,100.00
2022-10-05T19:23:58.224Z,100.00
2022-10-05T19:26:13.689Z,100.00
2022-10-05T19:28:23.899Z,100.00
2022-10-05T19:30:33.344Z,100.00
2022-10-05T19:32:46.366Z,100.00
2022-10-05T19:35:03.115Z,100.00
2022-10-05T19:37:10.191Z,100.00
2022-10-05T19:39:21.881Z,100.00
2022-10-05T19:41:36.122Z,100.00
2022-10-05T19:43:51.798Z,100.00
2022-10-05T19:46:01.748Z,100.00
2022-10-05T19:48:16.792Z,100.00
2022-10-05T19:50:30.509Z,100.00
2022-10-05T19:52:40.874Z,100.00
2022-10-05T19:54:43.757Z,100.00
2022-10-05T19:56:47.457Z,100.00
2022-10-05T19:58:50.170Z,100.00
2022-10-05T20:00:57.515Z,100.00
2022-10-05T20:03:10.333Z,100.00
2022-10-05T20:05:14.043Z,100.00
2022-10-05T20:07:17.626Z,100.00
2022-10-05T20:09:21.554Z,100.00
2022-10-05T20:11:25.053Z,100.00
2022-10-05T20:13:26.942Z,100.00
2022-10-05T20:15:30.511Z,100.00
2022-10-05T20:17:32.461Z,100.00
2022-10-05T20:19:38.410Z,100.00
2022-10-05T20:21:46.759Z,100.00
2022-10-05T20:24:06.310Z,100.00
2022-10-05T20:26:07.788Z,100.00
2022-10-05T20:28:10.866Z,100.00
2022-10-05T20:30:15.705Z,100.00
2022-10-05T20:32:21.023Z,100.00
2022-10-05T20:34:22.914Z,100.00
2022-10-05T20:36:24.375Z,100.00
2022-10-05T20:38:26.180Z,100.00
2022-10-05T20:40:29.446Z,100.00
2022-10-05T20:42:31.237Z,100.00
2022-10-05T20:44:34.781Z,100.00
2022-10-05T20:46:36.495Z,100.00
2022-10-05T20:48:38.129Z,100.00
2022-10-05T20:50:39.665Z,100.00
2022-10-05T20:52:43.188Z,100.00
2022-10-05T20:56:52.010Z,100.00
2022-10-05T20:58:53.504Z,100.00
2022-10-05T21:00:56.462Z,100.00
2022-10-05T21:02:58.129Z,100.00
2022-10-05T21:04:59.774Z,100.00
2022-10-05T21:07:02.267Z,100.00
2022-10-05T21:09:04.807Z,100.00
2022-10-05T21:11:06.357Z,100.00
2022-10-05T21:13:07.813Z,100.00
2022-10-05T21:15:09.300Z,100.00
2022-10-05T21:17:12.373Z,100.00
2022-10-05T21:19:15.403Z,100.00
2022-10-05T21:21:18.063Z,100.00
2022-10-05T21:23:19.506Z,100.00
2022-10-05T21:25:21.016Z,100.00
2022-10-05T21:27:22.470Z,100.00
2022-10-05T21:29:24.125Z,100.00
2022-10-05T21:31:26.018Z,100.00
2022-10-05T21:33:29.171Z,100.00
2022-10-05T21:35:31.466Z,100.00
2022-10-05T21:37:33.088Z,100.00
2022-10-05T21:39:34.562Z,100.00
2022-10-05T21:41:36.143Z,100.00
2022-10-05T21:43:37.675Z,100.00
2022-10-05T21:45:39.310Z,100.00
2022-10-05T21:47:40.903Z,100.00
2022-10-05T21:49:43.952Z,100.00
2022-10-05T21:51:45.485Z,100.00
2022-10-05T21:53:51.791Z,100.00
2022-10-05T21:55:53.448Z,100.00
2022-10-05T21:57:56.612Z,100.00
2022-10-05T22:00:06.070Z,100.00
2022-10-05T22:02:07.827Z,100.00
2022-10-05T22:04:09.314Z,100.00
2022-10-05T22:06:12.608Z,100.00
2022-10-05T22:08:20.796Z,100.00
2022-10-05T22:10:22.855Z,100.00
2022-10-05T22:12:24.413Z,100.00
2022-10-05T22:14:25.912Z,100.00
2022-10-05T22:16:28.557Z,100.00
2022-10-05T22:18:30.536Z,100.00
2022-10-05T22:20:34.210Z,100.00
2022-10-05T22:22:37.270Z,100.00
2022-10-05T22:24:38.705Z,100.00
2022-10-05T22:26:41.974Z,100.00
2022-10-05T22:28:44.464Z,100.00
2022-10-05T22:30:46.132Z,100.00
2022-10-05T22:32:47.609Z,100.00
2022-10-05T22:34:49.230Z,100.00
2022-10-05T22:36:50.757Z,100.00
2022-10-05T22:38:53.683Z,100.00
2022-10-05T22:40:55.441Z,100.00
2022-10-05T22:42:57.526Z,100.00
2022-10-05T22:44:59.078Z,100.00
2022-10-05T22:47:00.875Z,100.00
2022-10-05T22:49:02.337Z,100.00
2022-10-05T22:51:04.005Z,100.00
2022-10-05T22:53:05.545Z,100.00
2022-10-05T22:55:09.382Z,100.00
2022-10-05T22:57:11.075Z,100.00
2022-10-05T22:59:12.943Z,100.00
2022-10-05T23:01:17.052Z,100.00
2022-10-05T23:03:18.816Z,100.00
2022-10-05T23:05:20.290Z,100.00
2022-10-05T23:07:22.134Z,100.00
2022-10-05T23:09:23.611Z,100.00
2022-10-05T23:11:27.708Z,100.00
2022-10-05T23:13:30.068Z,100.00
2022-10-05T23:15:31.553Z,100.00
2022-10-05T23:17:33.504Z,100.00
2022-10-05T23:19:34.961Z,100.00
2022-10-05T23:21:36.482Z,100.00
2022-10-05T23:23:39.865Z,100.00
2022-10-05T23:25:41.461Z,100.00
2022-10-05T23:27:44.475Z,100.00
2022-10-05T23:29:46.005Z,100.00
2022-10-05T23:31:47.484Z,100.00
2022-10-05T23:33:49.106Z,100.00
2022-10-05T23:35:57.371Z,100.00
2022-10-05T23:37:59.381Z,100.00
2022-10-05T23:40:00.844Z,100.00
2022-10-05T23:42:02.333Z,100.00
2022-10-05T23:44:05.186Z,100.00
2022-10-05T23:46:07.321Z,100.00
2022-10-05T23:48:08.853Z,100.00
2022-10-05T23:50:10.587Z,100.00
2022-10-05T23:52:12.476Z,100.00
2022-10-05T23:54:14.354Z,100.00
2022-10-05T23:56:16.046Z,100.00
2022-10-05T23:58:18.048Z,100.00
